Time;durP1;ratioP1;P1;durP2;ratioP2;P2;SDS_P1;SDS_P2;PMS_P1;PMS_P2;Temp;Humidity;BMP_temperature;BMP_pressure;BME280_temperature;BME280_humidity;BME280_pressure;Samples;Min_cycle;Max_cycle;Signal;HPM_P1;HPM_P2
2024/01/11 00:00:39;;;;;;;19.60;9.85;;;;;;;-5.70;100.00;61416.13;5083887;28;20283;-75
2024/01/11 00:03:05;;;;;;;24.67;13.20;;;;;;;-5.72;100.00;61417.06;5085800;28;20219;-74
2024/01/11 00:05:34;;;;;;;32.25;16.70;;;;;;;-5.74;100.00;61422.47;5084164;28;20238;-75
2024/01/11 00:08:01;;;;;;;35.75;17.60;;;;;;;-5.76;100.00;61410.03;5083999;28;20204;-75
2024/01/11 00:10:27;;;;;;;17.10;10.45;;;;;;;-5.78;100.00;61407.97;5082326;28;20547;-75
2024/01/11 00:12:54;;;;;;;24.77;13.25;;;;;;;-5.81;100.00;61409.88;5079516;28;20509;-75
2024/01/11 00:15:21;;;;;;;31.50;16.80;;;;;;;-5.84;100.00;61407.34;5084339;28;20282;-74
2024/01/11 00:17:48;;;;;;;16.90;9.27;;;;;;;-5.86;100.00;61402.31;5082524;28;20200;-76
2024/01/11 00:20:15;;;;;;;12.15;8.30;;;;;;;-5.85;100.00;61408.31;5081377;28;20277;-75
2024/01/11 00:22:43;;;;;;;12.18;6.88;;;;;;;-5.85;100.00;61403.84;5084734;28;20201;-74
2024/01/11 00:25:10;;;;;;;10.48;6.32;;;;;;;-5.91;100.00;61400.22;5087531;28;20572;-73
2024/01/11 00:27:37;;;;;;;9.30;6.22;;;;;;;-5.93;100.00;61396.22;5081693;28;20215;-74
2024/01/11 00:30:06;;;;;;;11.20;6.80;;;;;;;-6.04;100.00;61382.53;5084328;28;20270;-75
2024/01/11 00:32:32;;;;;;;8.13;6.22;;;;;;;-6.01;100.00;61383.13;5084833;28;20223;-76
2024/01/11 00:34:59;;;;;;;6.85;6.00;;;;;;;-6.01;100.00;61385.59;5082994;28;20243;-74
2024/01/11 00:37:26;;;;;;;9.85;6.20;;;;;;;-6.02;100.00;61384.03;5083260;28;20261;-76
2024/01/11 00:39:54;;;;;;;7.97;5.43;;;;;;;-6.02;100.00;61394.47;5084043;28;20560;-74
2024/01/11 00:42:21;;;;;;;7.97;4.78;;;;;;;-6.04;100.00;61379.56;5082172;28;20201;-74
2024/01/11 00:44:49;;;;;;;6.18;4.80;;;;;;;-6.03;100.00;61383.03;5083344;28;20267;-75
2024/01/11 00:47:16;;;;;;;4.10;3.67;;;;;;;-6.00;100.00;61389.06;5084310;28;20509;-75
2024/01/11 00:49:43;;;;;;;5.60;4.03;;;;;;;-6.02;100.00;61384.03;5083627;28;20469;-75
2024/01/11 00:52:13;;;;;;;5.30;3.45;;;;;;;-6.01;100.00;61390.03;5080624;28;20196;-75
2024/01/11 00:54:40;;;;;;;5.53;3.60;;;;;;;-6.05;100.00;61381.50;5084047;28;20250;-75
2024/01/11 00:57:08;;;;;;;5.50;4.18;;;;;;;-6.14;100.00;61376.78;5083550;28;20610;-75
2024/01/11 00:59:35;;;;;;;5.40;3.97;;;;;;;-6.16;100.00;61377.72;5083982;28;20295;-74
2024/01/11 01:02:02;;;;;;;5.70;4.10;;;;;;;-6.18;100.00;61370.25;5082124;28;20396;-74
2024/01/11 01:04:29;;;;;;;11.13;4.95;;;;;;;-6.15;100.00;61370.81;5082571;28;20258;-74
2024/01/11 01:06:56;;;;;;;8.23;5.25;;;;;;;-6.10;100.00;61375.91;5084232;28;20266;-73
2024/01/11 01:09:23;;;;;;;7.63;5.32;;;;;;;-6.14;100.00;61372.34;5083227;28;20232;-74
2024/01/11 01:11:50;;;;;;;7.93;4.57;;;;;;;-6.18;100.00;61370.75;5085757;28;20358;-73
2024/01/11 01:14:18;;;;;;;9.85;5.45;;;;;;;-6.16;100.00;61372.78;5081676;28;20224;-75
2024/01/11 01:16:45;;;;;;;8.35;5.22;;;;;;;-6.17;100.00;61373.72;5084073;28;20290;-74
2024/01/11 01:19:12;;;;;;;9.57;6.10;;;;;;;-6.15;100.00;61368.84;5076882;28;20216;-75
2024/01/11 01:21:39;;;;;;;8.68;5.07;;;;;;;-6.19;100.00;61372.22;5082029;28;20250;-74
2024/01/11 01:24:06;;;;;;;7.65;5.22;;;;;;;-6.21;100.00;61370.16;5082118;28;20224;-76
2024/01/11 01:26:33;;;;;;;6.50;5.15;;;;;;;-6.16;100.00;61372.78;5083847;28;20430;-75
2024/01/11 01:28:59;;;;;;;6.72;4.40;;;;;;;-6.18;100.00;61370.75;5081320;28;20219;-75
2024/01/11 01:31:28;;;;;;;8.20;5.20;;;;;;;-6.23;100.00;61362.69;5083598;28;20299;-75
2024/01/11 01:33:55;;;;;;;8.15;5.00;;;;;;;-6.13;100.00;61375.34;5085631;28;20209;-76
2024/01/11 01:36:22;;;;;;;8.55;5.05;;;;;;;-6.09;100.00;61376.94;5084231;28;20474;-75
2024/01/11 01:38:49;;;;;;;10.98;6.03;;;;;;;-6.10;100.00;61381.38;5081944;28;20504;-74
2024/01/11 01:41:16;;;;;;;8.85;5.25;;;;;;;-6.09;100.00;61374.47;5083718;28;20234;-76
2024/01/11 01:43:42;;;;;;;7.07;5.78;;;;;;;-6.07;100.00;61384.44;5082436;28;20196;-74
2024/01/11 01:46:09;;;;;;;8.93;6.07;;;;;;;-6.06;100.00;61380.00;5079972;28;20292;-74
2024/01/11 01:48:37;;;;;;;6.65;5.00;;;;;;;-5.97;100.00;61391.63;5082144;28;20234;-75
2024/01/11 01:51:04;;;;;;;10.70;5.22;;;;;;;-5.94;100.00;61390.22;5082633;28;20233;-75
2024/01/11 01:53:31;;;;;;;8.20;4.57;;;;;;;-5.95;100.00;61396.13;5084236;28;20204;-75
2024/01/11 01:55:58;;;;;;;5.28;3.88;;;;;;;-5.91;100.00;61397.75;5084420;28;20242;-75
2024/01/11 01:58:25;;;;;;;8.57;5.07;;;;;;;-5.94;100.00;61395.19;5087171;28;20208;-75
2024/01/11 02:00:52;;;;;;;8.25;5.55;;;;;;;-5.92;100.00;61394.25;5090765;28;20220;-75
2024/01/11 02:03:19;;;;;;;8.38;5.70;;;;;;;-5.92;100.00;61399.19;5087977;28;20201;-75
2024/01/11 02:05:47;;;;;;;6.80;6.00;;;;;;;-5.81;100.00;61402.44;5084598;28;20414;-75
2024/01/11 02:08:18;;;;;;;9.00;6.13;;;;;;;-5.77;100.00;61416.41;5086275;28;20375;-75
2024/01/11 02:10:45;;;;;;;7.88;5.93;;;;;;;-5.78;100.00;61410.94;5083122;28;20243;-77
2024/01/11 02:13:12;;;;;;;13.85;6.68;;;;;;;-5.75;100.00;61418.97;5085193;28;20267;-74
2024/01/11 02:15:39;;;;;;;7.68;6.10;;;;;;;-5.85;100.00;61400.88;5086041;28;20280;-77
2024/01/11 02:18:06;;;;;;;7.43;6.35;;;;;;;-5.83;100.00;61407.84;5083198;28;20251;-75
2024/01/11 02:20:33;;;;;;;10.13;5.68;;;;;;;-5.76;100.00;61407.53;5082892;28;20221;-75
2024/01/11 02:23:04;;;;;;;7.30;5.55;;;;;;;-5.82;100.00;61406.88;5089810;28;20411;-74
2024/01/11 02:25:32;;;;;;;5.43;4.18;;;;;;;-5.85;100.00;61408.81;5084544;28;20224;-75
2024/01/11 02:27:59;;;;;;;5.15;3.25;;;;;;;-5.97;100.00;61387.19;5085102;28;20208;-76
2024/01/11 02:30:26;;;;;;;4.88;3.75;;;;;;;-5.89;100.00;61404.22;5086237;28;20407;-76
2024/01/11 02:32:53;;;;;;;6.32;3.47;;;;;;;-5.92;100.00;61394.75;5083303;28;20228;-76
2024/01/11 02:35:20;;;;;;;4.38;3.97;;;;;;;-5.90;100.00;61395.78;5084699;28;20216;-75
2024/01/11 02:37:47;;;;;;;7.45;4.72;;;;;;;-6.01;100.00;61387.56;5085905;28;20242;-75
2024/01/11 02:40:14;;;;;;;5.95;4.45;;;;;;;-6.02;100.00;61386.53;5087130;28;20220;-73
2024/01/11 02:42:43;;;;;;;12.48;5.90;;;;;;;-6.06;100.00;61382.97;5079974;28;20360;-74
2024/01/11 02:45:11;;;;;;;5.10;4.10;;;;;;;-6.11;100.00;61377.38;5084815;28;20260;-74
2024/01/11 02:47:38;;;;;;;12.50;6.80;;;;;;;-6.17;100.00;61376.22;5086771;28;20217;-75
2024/01/11 02:50:05;;;;;;;32.40;16.13;;;;;;;-6.22;100.00;61363.69;5087511;28;20244;-75
2024/01/11 02:52:32;;;;;;;25.75;13.55;;;;;;;-6.21;100.00;61370.16;5085779;28;20277;-74
2024/01/11 02:54:59;;;;;;;5.38;4.60;;;;;;;-6.20;100.00;61373.16;5081994;28;20262;-75
2024/01/11 02:57:25;;;;;;;8.60;5.07;;;;;;;-6.24;100.00;61364.13;5084447;28;20240;-75
2024/01/11 02:59:54;;;;;;;7.70;4.97;;;;;;;-6.28;100.00;61360.06;5084319;28;20232;-75
2024/01/11 03:02:21;;;;;;;7.80;5.05;;;;;;;-6.34;100.00;61361.88;5086304;28;20196;-74
2024/01/11 03:04:48;;;;;;;10.45;4.80;;;;;;;-6.33;100.00;61354.97;5094447;28;20219;-74
2024/01/11 03:07:15;;;;;;;6.38;4.40;;;;;;;-6.42;100.00;61351.25;5085926;28;20537;-74
2024/01/11 03:09:42;;;;;;;8.77;5.38;;;;;;;-6.40;100.00;61348.34;5084474;28;20225;-75
2024/01/11 03:12:09;;;;;;;7.20;4.75;;;;;;;-6.38;100.00;61350.38;5085876;28;20203;-73
2024/01/11 03:14:35;;;;;;;4.65;3.65;;;;;;;-6.44;100.00;61341.81;5087308;28;20512;-74
2024/01/11 03:17:04;;;;;;;4.55;3.85;;;;;;;-6.46;100.00;61337.28;5084426;28;20405;-73
2024/01/11 03:19:31;;;;;;;6.18;4.60;;;;;;;-6.44;100.00;61341.81;5085383;28;20228;-74
2024/01/11 03:21:58;;;;;;;5.75;4.13;;;;;;;-6.46;100.00;61339.25;5085139;28;20208;-74
2024/01/11 03:24:25;;;;;;;5.28;3.50;;;;;;;-6.51;100.00;61339.63;5084099;28;20220;-74
2024/01/11 03:26:52;;;;;;;6.78;3.83;;;;;;;-6.53;100.00;61332.13;5082780;28;20207;-74
2024/01/11 03:29:18;;;;;;;5.45;4.22;;;;;;;-6.54;100.00;61336.06;5085276;28;20225;-74
2024/01/11 03:31:45;;;;;;;5.60;3.45;;;;;;;-6.54;100.00;61336.56;5083710;28;20236;-74
2024/01/11 03:34:14;;;;;;;3.70;3.38;;;;;;;-6.53;100.00;61329.66;5083752;28;20236;-74
2024/01/11 03:36:41;;;;;;;6.60;5.88;;;;;;;-6.52;100.00;61338.59;5088907;28;20201;-74
2024/01/11 03:39:07;;;;;;;21.25;11.43;;;;;;;-6.52;100.00;61333.66;5085341;28;20232;-74
2024/01/11 03:41:34;;;;;;;19.67;11.73;;;;;;;-6.56;100.00;61334.53;5083401;28;20192;-75
2024/01/11 03:44:01;;;;;;;21.30;11.13;;;;;;;-6.57;100.00;61333.00;5077661;28;20251;-74
2024/01/11 03:46:28;;;;;;;12.02;6.53;;;;;;;-6.70;100.00;61319.78;5084803;28;20204;-74
2024/01/11 03:48:55;;;;;;;28.23;15.80;;;;;;;-6.74;100.00;61316.22;5085203;28;20211;-74
2024/01/11 03:51:23;;;;;;;8.48;6.63;;;;;;;-6.75;100.00;61315.19;5082396;28;20274;-73
2024/01/11 03:53:50;;;;;;;14.13;8.93;;;;;;;-6.76;100.00;61314.16;5081376;28;20219;-74
2024/01/11 03:56:17;;;;;;;25.23;14.23;;;;;;;-6.80;100.00;61305.16;5085756;28;20213;-74
2024/01/11 03:58:44;;;;;;;16.75;8.48;;;;;;;-6.82;100.00;61310.03;5088677;28;20204;-73
2024/01/11 04:01:11;;;;;;;14.52;8.45;;;;;;;-6.81;100.00;61304.13;5082120;28;20227;-75
2024/01/11 04:03:38;;;;;;;12.50;8.93;;;;;;;-6.83;100.00;61304.56;5082235;28;20200;-74
2024/01/11 04:06:06;;;;;;;24.23;11.82;;;;;;;-6.83;100.00;61299.13;5073423;28;20517;-74
2024/01/11 04:08:34;;;;;;;11.80;9.15;;;;;;;-6.86;100.00;61304.00;5084813;28;20202;-75
2024/01/11 04:11:04;;;;;;;22.20;12.68;;;;;;;-6.89;100.00;61305.91;5083328;28;20259;-75
2024/01/11 04:13:31;;;;;;;25.45;14.43;;;;;;;-6.89;100.00;61293.53;5082662;28;20547;-74
2024/01/11 04:15:57;;;;;;;29.30;13.23;;;;;;;-6.86;100.00;61301.53;5084525;28;20461;-75
2024/01/11 04:18:24;;;;;;;24.55;13.95;;;;;;;-6.92;100.00;61300.38;5082735;28;20217;-75
2024/01/11 04:20:51;;;;;;;26.52;11.27;;;;;;;-6.87;100.00;61304.94;5083200;28;20497;-76
2024/01/11 04:23:18;;;;;;;14.88;9.32;;;;;;;-6.91;100.00;61298.41;5085624;28;20208;-76
2024/01/11 04:25:46;;;;;;;20.88;10.75;;;;;;;-6.87;100.00;61305.47;5086421;28;20224;-75
2024/01/11 04:28:14;;;;;;;14.07;7.78;;;;;;;-6.85;100.00;61304.50;5083574;28;20271;-74
2024/01/11 04:30:41;;;;;;;11.13;6.43;;;;;;;-6.89;100.00;61296.00;5083523;28;20240;-75
2024/01/11 04:33:07;;;;;;;9.98;6.40;;;;;;;-6.89;100.00;61297.97;5080859;28;20534;-75
2024/01/11 04:35:34;;;;;;;11.38;6.65;;;;;;;-6.95;100.00;61294.84;5084400;28;20228;-74
2024/01/11 04:38:01;;;;;;;16.65;8.15;;;;;;;-6.94;100.00;61295.34;5082589;28;20250;-75
2024/01/11 04:40:28;;;;;;;13.20;6.47;;;;;;;-6.98;100.00;61288.81;5080781;28;20224;-75
2024/01/11 04:42:56;;;;;;;14.93;8.10;;;;;;;-7.02;100.00;61287.22;5080850;28;20449;-74
2024/01/11 04:45:23;;;;;;;14.48;7.40;;;;;;;-7.09;100.00;61283.06;5084001;28;20470;-75
2024/01/11 04:47:51;;;;;;;10.65;7.00;;;;;;;-7.10;100.00;61284.53;5083018;28;20204;-75
2024/01/11 04:50:18;;;;;;;12.80;7.70;;;;;;;-7.06;100.00;61283.66;5087854;28;20238;-75
2024/01/11 04:52:45;;;;;;;14.07;7.53;;;;;;;-7.08;100.00;61276.16;5084538;28;20201;-74
2024/01/11 04:55:12;;;;;;;13.65;7.30;;;;;;;-7.11;100.00;61273.63;5082274;28;20220;-74
2024/01/11 04:57:39;;;;;;;9.38;6.85;;;;;;;-7.07;100.00;61282.63;5079433;28;20204;-76
2024/01/11 05:00:09;;;;;;;15.88;8.85;;;;;;;-7.04;100.00;61280.75;5081422;28;20529;-75
2024/01/11 05:02:36;;;;;;;12.90;7.05;;;;;;;-7.07;100.00;61279.66;5084250;28;20273;-74
2024/01/11 05:05:03;;;;;;;10.32;6.97;;;;;;;-7.06;100.00;61281.19;5082825;28;20402;-75
2024/01/11 05:07:30;;;;;;;10.23;6.53;;;;;;;-7.11;100.00;61279.06;5084076;28;20208;-75
2024/01/11 05:09:57;;;;;;;13.00;7.68;;;;;;;-7.02;100.00;61285.25;5080233;28;20220;-75
2024/01/11 05:12:23;;;;;;;15.27;7.57;;;;;;;-6.99;100.00;61285.31;5086466;28;20358;-75
2024/01/11 05:14:50;;;;;;;18.02;11.05;;;;;;;-7.03;100.00;61286.19;5081619;28;20290;-75
2024/01/11 05:17:19;;;;;;;16.83;7.97;;;;;;;-6.98;100.00;61286.31;5080610;28;20207;-76
2024/01/11 05:19:46;;;;;;;10.60;7.25;;;;;;;-7.13;100.00;61272.09;5081864;28;20258;-76
2024/01/11 05:22:13;;;;;;;22.63;12.68;;;;;;;-7.02;100.00;61289.69;5082834;28;20200;-75
2024/01/11 05:24:40;;;;;;;28.15;14.07;;;;;;;-6.99;100.00;61285.31;5081948;28;20254;-75
2024/01/11 05:27:07;;;;;;;24.13;12.75;;;;;;;-7.02;100.00;61285.25;5082161;28;20537;-77
2024/01/11 05:29:34;;;;;;;24.60;12.15;;;;;;;-7.00;100.00;61289.75;5082684;28;20397;-76
2024/01/11 05:32:01;;;;;;;21.42;12.30;;;;;;;-7.02;100.00;61287.72;5088729;28;20228;-75
2024/01/11 05:34:29;;;;;;;25.92;14.52;;;;;;;-6.98;100.00;61291.78;5088037;28;20220;-74
2024/01/11 05:36:55;;;;;;;20.25;11.30;;;;;;;-7.06;100.00;61281.19;5085246;28;20261;-76
2024/01/11 05:39:22;;;;;;;26.33;11.63;;;;;;;-7.13;100.00;61266.66;5085000;28;20236;-75
2024/01/11 05:41:49;;;;;;;23.25;12.52;;;;;;;-7.15;100.00;61275.00;5081113;28;20204;-74
2024/01/11 05:44:16;;;;;;;29.33;13.40;;;;;;;-7.13;100.00;61276.53;5083800;28;20221;-75
2024/01/11 05:46:44;;;;;;;25.58;12.98;;;;;;;-7.13;100.00;61276.53;5083877;28;20201;-75
2024/01/11 05:49:11;;;;;;;20.80;11.77;;;;;;;-7.08;100.00;61274.19;5082704;28;20216;-74
2024/01/11 05:51:39;;;;;;;25.42;10.80;;;;;;;-7.06;100.00;61278.19;5085458;28;20229;-75
2024/01/11 05:54:06;;;;;;;23.17;11.93;;;;;;;-7.13;100.00;61271.59;5083346;28;20212;-74
2024/01/11 05:56:33;;;;;;;25.70;12.57;;;;;;;-7.34;100.00;61255.16;5084288;28;20495;-75
2024/01/11 05:58:59;;;;;;;24.70;11.90;;;;;;;-7.27;100.00;61262.81;5088206;28;20311;-75
2024/01/11 06:01:26;;;;;;;31.48;12.32;;;;;;;-7.36;100.00;61255.59;5086765;28;20246;-75
2024/01/11 06:03:53;;;;;;;23.10;12.13;;;;;;;-7.30;100.00;61254.31;5083635;28;20212;-75
2024/01/11 06:06:20;;;;;;;25.23;11.55;;;;;;;-7.29;100.00;61258.28;5086765;28;20280;-75
2024/01/11 06:08:48;;;;;;;21.88;11.25;;;;;;;-7.27;100.00;61262.28;5086374;28;20250;-76
2024/01/11 06:11:15;;;;;;;27.80;13.52;;;;;;;-7.28;100.00;61263.72;5086572;28;20228;-76
2024/01/11 06:13:42;;;;;;;18.70;10.38;;;;;;;-7.25;100.00;61256.91;5087379;28;20622;-75
2024/01/11 06:16:09;;;;;;;17.98;9.68;;;;;;;-7.24;100.00;61263.38;5086541;28;20278;-75
2024/01/11 06:18:39;;;;;;;15.88;8.63;;;;;;;-7.25;100.00;61264.31;5078683;28;20427;-75
2024/01/11 06:21:06;;;;;;;18.77;8.63;;;;;;;-7.31;100.00;61258.72;5084612;28;20266;-74
2024/01/11 06:23:32;;;;;;;12.65;8.25;;;;;;;-7.24;100.00;61270.28;5086687;28;20235;-75
2024/01/11 06:26:01;;;;;;;17.80;9.48;;;;;;;-7.22;100.00;61264.91;5087205;28;20247;-75
2024/01/11 06:28:28;;;;;;;11.75;8.50;;;;;;;-7.17;100.00;61265.03;5086861;28;20250;-75
2024/01/11 06:30:54;;;;;;;20.15;10.15;;;;;;;-7.23;100.00;61271.81;5086175;28;20240;-74
2024/01/11 06:33:21;;;;;;;23.10;12.70;;;;;;;-7.18;100.00;61271.94;5086173;28;20197;-77
2024/01/11 06:35:48;;;;;;;23.33;12.45;;;;;;;-7.15;100.00;61279.97;5086480;28;20267;-75
2024/01/11 06:38:15;;;;;;;28.45;14.75;;;;;;;-7.16;100.00;61268.53;5086396;28;20493;-75
2024/01/11 06:40:43;;;;;;;22.20;12.70;;;;;;;-7.06;100.00;61278.19;5086582;28;21345;-74
2024/01/11 06:43:11;;;;;;;18.65;11.02;;;;;;;-7.16;100.00;61273.47;5091900;28;20452;-75
2024/01/11 06:45:38;;;;;;;20.83;11.75;;;;;;;-7.12;100.00;61275.59;5088517;28;20453;-75
2024/01/11 06:48:06;;;;;;;29.17;13.80;;;;;;;-7.06;100.00;61283.66;5086070;28;20209;-74
2024/01/11 06:50:33;;;;;;;23.20;13.55;;;;;;;-7.06;100.00;61276.25;5086535;28;20248;-76
2024/01/11 06:53:00;;;;;;;29.45;16.85;;;;;;;-7.06;100.00;61278.19;5086829;28;20236;-77
2024/01/11 06:55:27;;;;;;;25.80;16.17;;;;;;;-7.10;100.00;61272.16;5086307;28;20251;-75
2024/01/11 06:57:54;;;;;;;33.85;17.88;;;;;;;-7.07;100.00;61280.16;5086162;28;20204;-74
2024/01/11 07:00:22;;;;;;;28.63;16.85;;;;;;;-6.93;100.00;61301.31;5086225;28;20224;-75
2024/01/11 07:02:49;;;;;;;26.25;15.48;;;;;;;-6.90;100.00;61302.41;5086303;28;20205;-75
2024/01/11 07:05:16;;;;;;;32.70;16.58;;;;;;;-6.85;100.00;61297.09;5085755;28;20422;-77
2024/01/11 07:07:44;;;;;;;31.48;16.35;;;;;;;-6.83;100.00;61304.56;5086754;28;20473;-74
2024/01/11 07:10:12;;;;;;;31.85;16.05;;;;;;;-6.74;100.00;61318.16;5086804;28;20232;-75
2024/01/11 07:12:41;;;;;;;33.67;17.02;;;;;;;-6.64;100.00;61320.94;5088500;28;20236;-75
2024/01/11 07:15:09;;;;;;;43.28;24.20;;;;;;;-6.44;100.00;61344.28;5085748;28;20296;-75
2024/01/11 07:17:38;;;;;;;35.70;17.80;;;;;;;-6.29;100.00;61362.03;5086140;28;20264;-75
2024/01/11 07:20:06;;;;;;;35.33;18.90;;;;;;;-6.19;100.00;61369.22;5073526;28;20220;-75
2024/01/11 07:22:33;;;;;;;41.60;21.38;;;;;;;-5.96;100.00;61392.66;5086716;28;20227;-75
2024/01/11 07:25:00;;;;;;;37.63;19.55;;;;;;;-5.73;100.00;61416.06;5085752;28;20251;-75
2024/01/11 07:27:27;;;;;;;39.53;20.45;;;;;;;-5.61;100.00;61425.28;5085871;28;20389;-74
2024/01/11 07:29:54;;;;;;;39.55;22.15;;;;;;;-5.35;100.00;61449.81;5084940;28;20448;-74
2024/01/11 07:32:20;;;;;;;44.05;23.75;;;;;;;-4.86;100.00;61499.25;5085596;28;20454;-74
2024/01/11 07:34:49;;;;;;;40.13;23.50;;;;;;;-4.84;100.00;61506.78;5087250;28;20293;-75
2024/01/11 07:37:16;;;;;;;39.28;22.40;;;;;;;-4.74;100.00;61519.44;5085806;28;20468;-74
2024/01/11 07:39:43;;;;;;;44.75;22.92;;;;;;;-4.76;100.00;61514.91;5085948;28;20228;-76
2024/01/11 07:42:10;;;;;;;41.85;23.17;;;;;;;-5.05;100.00;61487.84;5083644;28;20223;-74
2024/01/11 07:44:37;;;;;;;41.40;22.38;;;;;;;-5.17;100.00;61472.59;5084819;28;20263;-75
2024/01/11 07:47:04;;;;;;;45.17;23.40;;;;;;;-5.04;100.00;61490.84;5084028;28;20232;-76
2024/01/11 07:49:32;;;;;;;42.53;23.58;;;;;;;-5.00;100.00;61489.94;5074067;28;20223;-76
2024/01/11 07:52:00;;;;;;;37.35;20.60;;;;;;;-5.04;100.00;61488.34;5079741;28;20270;-75
2024/01/11 07:54:27;;;;;;;37.38;21.30;;;;;;;-5.11;100.00;61476.25;5084280;28;20254;-75
2024/01/11 07:56:54;;;;;;;41.40;20.77;;;;;;;-5.12;100.00;61475.22;5087254;28;20204;-75
2024/01/11 07:59:21;;;;;;;34.22;21.85;;;;;;;-4.87;100.00;61496.25;5086966;28;20269;-75
2024/01/11 08:01:48;;;;;;;37.45;21.40;;;;;;;-4.79;100.00;61511.88;5081326;28;20202;-76
2024/01/11 08:04:15;;;;;;;39.13;21.20;;;;;;;-4.76;100.00;61509.97;5083558;28;20224;-76
2024/01/11 08:06:42;;;;;;;59.53;33.55;;;;;;;-4.78;100.00;61514.88;5083677;28;20234;-75
2024/01/11 08:09:11;;;;;;;40.88;23.40;;;;;;;-4.59;100.00;61529.25;5084077;28;20258;-74
2024/01/11 08:11:38;;;;;;;39.80;22.67;;;;;;;-4.51;100.00;61534.44;5082493;28;20330;-75
2024/01/11 08:14:05;;;;;;;37.00;22.85;;;;;;;-4.49;100.00;61541.44;5084816;28;20200;-77
2024/01/11 08:16:32;;;;;;;42.83;25.88;;;;;;;-4.62;100.00;61525.72;5085537;28;20197;-75
2024/01/11 08:19:00;;;;;;;46.92;23.38;;;;;;;-4.43;100.00;61545.06;5083677;28;20203;-76
2024/01/11 08:21:28;;;;;;;42.88;26.08;;;;;;;-4.37;100.00;61556.69;5083820;28;20208;-76
2024/01/11 08:23:55;;;;;;;46.63;24.88;;;;;;;-4.34;100.00;61557.25;5084038;28;20200;-75
2024/01/11 08:26:23;;;;;;;35.95;23.80;;;;;;;-4.34;100.00;61559.22;5083782;28;20254;-75
2024/01/11 08:28:50;;;;;;;38.47;23.63;;;;;;;-4.44;100.00;61541.56;5084132;28;20230;-76
2024/01/11 08:31:17;;;;;;;41.70;23.88;;;;;;;-4.40;100.00;61545.66;5080114;28;20200;-77
2024/01/11 08:33:44;;;;;;;52.70;28.33;;;;;;;-4.23;100.00;61568.50;5083391;28;20247;-76
2024/01/11 08:36:11;;;;;;;38.58;23.75;;;;;;;-4.05;100.00;61586.34;5086168;28;20282;-78
2024/01/11 08:38:39;;;;;;;37.53;21.55;;;;;;;-4.07;100.00;61581.81;5089200;28;20212;-79
2024/01/11 08:41:06;;;;;;;34.80;20.48;;;;;;;-4.37;100.00;61553.69;5085418;28;20225;-77
2024/01/11 08:43:34;;;;;;;40.40;21.55;;;;;;;-4.34;100.00;61557.25;5085591;28;20208;-77
2024/01/11 08:46:02;;;;;;;34.47;20.08;;;;;;;-4.47;100.00;61541.00;5087461;28;20220;-77
2024/01/11 08:48:28;;;;;;;35.28;20.85;;;;;;;-4.32;100.00;61559.31;5086869;28;20203;-77
2024/01/11 08:50:56;;;;;;;48.67;22.30;;;;;;;-4.11;100.00;61582.69;5085345;28;20216;-78
2024/01/11 08:53:22;;;;;;;33.28;20.48;;;;;;;-3.92;100.00;61594.63;5085762;28;20240;-80
2024/01/11 08:55:49;;;;;;;45.38;22.02;;;;;;;-3.74;100.00;61613.00;5087195;28;20221;-80
2024/01/11 08:58:16;;;;;;;35.95;21.15;;;;;;;-3.76;100.00;61611.47;5080492;28;20194;-76
2024/01/11 09:00:44;;;;;;;33.45;20.23;;;;;;;-3.79;100.00;61612.88;5087468;28;20288;-77
2024/01/11 09:03:13;;;;;;;37.10;20.95;;;;;;;-3.69;100.00;61621.09;5087971;28;20232;-77
2024/01/11 09:05:40;;;;;;;38.65;21.40;;;;;;;-3.60;100.00;61627.28;5089615;28;20380;-78
2024/01/11 09:08:07;;;;;;;38.25;21.10;;;;;;;-3.47;100.00;61645.03;5092943;28;20192;-78
2024/01/11 09:10:35;;;;;;;38.95;21.52;;;;;;;-3.64;100.00;61630.66;5089994;28;20592;-78
2024/01/11 09:13:02;;;;;;;33.90;21.35;;;;;;;-3.47;100.00;61640.56;5088970;28;20250;-77
2024/01/11 09:15:29;;;;;;;36.33;23.52;;;;;;;-3.53;100.00;61634.97;5088765;28;20216;-78
2024/01/11 09:17:57;;;;;;;35.83;19.75;;;;;;;-3.46;100.00;61641.06;5088915;28;20196;-78
2024/01/11 09:20:23;;;;;;;33.40;18.80;;;;;;;-3.45;100.00;61639.63;5088958;28;20217;-76
2024/01/11 09:22:50;;;;;;;43.17;23.90;;;;;;;-3.16;100.00;61679.19;5089309;28;20204;-75
2024/01/11 09:25:17;;;;;;;37.42;21.88;;;;;;;-3.31;100.00;61661.38;5087463;28;20220;-75
2024/01/11 09:27:44;;;;;;;39.63;21.75;;;;;;;-3.17;100.00;61675.66;5088195;28;20201;-76
2024/01/11 09:30:12;;;;;;;37.72;22.10;;;;;;;-2.94;100.00;61694.19;5087729;28;20288;-76
2024/01/11 09:32:39;;;;;;;35.72;22.27;;;;;;;-2.86;100.00;61707.34;5090187;28;20248;-76
2024/01/11 09:35:07;;;;;;;39.40;23.17;;;;;;;-2.89;100.00;61699.28;5093053;28;20224;-75
2024/01/11 09:37:34;;;;;;;41.22;23.67;;;;;;;-2.79;100.00;61716.97;5087022;28;20211;-75
2024/01/11 09:40:01;;;;;;;39.97;23.50;;;;;;;-2.64;100.00;61727.34;5087366;28;20228;-75
2024/01/11 09:42:29;;;;;;;43.35;23.15;;;;;;;-2.51;100.00;61743.13;5088368;28;20208;-76
2024/01/11 09:44:57;;;;;;;39.00;22.92;;;;;;;-2.40;100.00;61754.38;5093345;28;20216;-76
2024/01/11 09:47:25;;;;;;;40.42;23.20;;;;;;;-2.30;100.00;61762.09;5093965;28;20231;-74
2024/01/11 09:49:52;;;;;;;43.15;21.80;;;;;;;-2.49;100.00;61742.66;5095350;28;20208;-76
2024/01/11 09:52:21;;;;;;;39.55;22.27;;;;;;;-2.30;100.00;61764.06;5095659;28;20220;-74
2024/01/11 09:54:49;;;;;;;38.83;22.90;;;;;;;-2.40;100.00;61754.38;5094289;28;20221;-76
2024/01/11 09:57:16;;;;;;;42.15;23.77;;;;;;;-2.23;100.00;61771.22;5092301;28;20432;-75
2024/01/11 09:59:43;;;;;;;43.40;23.75;;;;;;;-2.14;100.00;61780.94;5096601;28;20217;-75
2024/01/11 10:02:12;;;;;;;40.25;22.90;;;;;;;-1.92;100.00;61803.44;5094272;28;20275;-76
2024/01/11 10:04:39;;;;;;;42.10;24.92;;;;;;;-2.10;100.00;61782.03;5094490;28;20224;-75
2024/01/11 10:07:06;;;;;;;42.75;26.58;;;;;;;-1.88;100.00;61802.03;5091815;28;20211;-76
2024/01/11 10:09:36;;;;;;;45.42;26.17;;;;;;;-1.87;100.00;61806.06;5096510;28;20549;-76
2024/01/11 10:12:04;;;;;;;46.65;27.25;;;;;;;-2.29;100.00;61762.59;5095320;28;20193;-75
2024/01/11 10:14:32;;;;;;;41.30;24.48;;;;;;;-2.08;100.00;61787.06;5092738;28;20216;-75
2024/01/11 10:17:01;;;;;;;50.50;26.75;;;;;;;-2.04;100.00;61793.66;5093656;28;20209;-76
2024/01/11 10:19:28;;;;;;;48.13;27.42;;;;;;;-1.94;100.00;61803.88;5094137;28;20216;-76
2024/01/11 10:21:55;;;;;;;57.42;27.85;;;;;;;-1.95;100.00;61799.88;5098172;28;20205;-75
2024/01/11 10:24:25;;;;;;;65.63;29.38;;;;;;;-1.84;100.00;61811.09;5093549;28;20250;-75
2024/01/11 10:26:56;;;;;;;48.65;27.98;;;;;;;-1.85;100.00;61807.59;5091091;28;20523;-74
2024/01/11 10:29:23;;;;;;;55.28;28.88;;;;;;;-1.53;100.00;61845.31;5089372;28;20441;-75
2024/01/11 10:31:50;;;;;;;55.90;30.83;;;;;;;-1.35;100.00;61861.75;5087001;28;20205;-74
2024/01/11 10:34:18;;;;;;;53.90;30.38;;;;;;;-1.36;100.00;61860.22;5086839;28;20236;-75
2024/01/11 10:36:44;;;;;;;48.00;28.52;;;;;;;-1.12;100.00;61884.28;5087421;28;20236;-75
2024/01/11 10:39:11;;;;;;;56.42;29.88;;;;;;;-1.18;97.99;61873.66;5086051;28;20278;-75
2024/01/11 10:41:41;;;;;;;50.33;29.50;;;;;;;-1.03;99.19;61891.50;5088114;28;20197;-74
2024/01/11 10:44:15;;;;;;;50.05;30.65;;;;;;;-0.98;100.00;61901.59;5090542;28;20304;-74
2024/01/11 10:46:42;;;;;;;52.95;29.25;;;;;;;-1.17;96.44;61876.66;5090337;28;20242;-75
2024/01/11 10:49:08;;;;;;;60.72;30.88;;;;;;;-1.16;96.28;61880.69;5086218;28;20258;-75
2024/01/11 10:51:36;;;;;;;49.40;30.40;;;;;;;-1.16;94.44;61885.69;5085853;28;20224;-75
2024/01/11 10:54:03;;;;;;;49.30;29.63;;;;;;;-0.93;98.03;61901.22;5086461;28;20236;-74
2024/01/11 10:56:29;;;;;;;56.00;28.67;;;;;;;-0.91;93.62;61900.75;5086397;28;20204;-75
2024/01/11 10:58:56;;;;;;;47.08;26.13;;;;;;;-0.79;98.80;61923.03;5086288;28;20402;-75
2024/01/11 11:01:25;;;;;;;52.85;27.00;;;;;;;-0.80;95.43;61917.53;5086198;28;20452;-75
2024/01/11 11:03:52;;;;;;;43.13;25.17;;;;;;;-1.20;91.34;61874.09;5086314;28;20201;-76
2024/01/11 11:06:19;;;;;;;38.25;23.52;;;;;;;-1.33;92.64;61863.78;5086181;28;20231;-74
2024/01/11 11:08:47;;;;;;;47.50;25.50;;;;;;;-1.24;94.54;61872.50;5092379;28;20204;-75
2024/01/11 11:11:14;;;;;;;47.92;27.33;;;;;;;-1.11;93.83;61887.78;5085427;28;20201;-76
2024/01/11 11:13:41;;;;;;;52.90;28.65;;;;;;;-1.20;94.41;61876.59;5084539;28;20232;-76